Current Conditions
Clear
Conditions



Pressure
1017.92 (hPa) - 30.06 (inHG)
Visibility

10.0 (km) - 6.2 (miles)
   Temperature
20  °C
68°F
17  °C
Dewpoint
83  %
 Humidity
   Wind Speed
0  km/h
0  kts
0  mph
0  m/s
   Wind Direction
Calm
Due North
   Airport Data
LELL
Location Sabadell 8 km (4.97 mi)
Metar :LELL 250530Z AUTO 00000KT 9999 NCD 20/17 Q1018
Sun 25th August 07:30 am
   Raw Metar Info
Raw METAR is the most common format in the world for the transmission of observational weather data. It is highly standardized through the International Civil Aviation Organization (ICAO), which allows it to be understood throughout most of the world.
   API Info
Data Provided by
https://www.checkwx.com/weather/LELL
   © Info
CSS/SVG/PHP scripts were developed by weather34.com for use in the weather34 template © 2015-2019

Guide Info provided by Metar-Wikipedia